Time;durP1;ratioP1;P1;durP2;ratioP2;P2;SDS_P1;SDS_P2;PMS_P1;PMS_P2;Temp;Humidity;BMP_temperature;BMP_pressure;BME280_temperature;BME280_humidity;BME280_pressure;Samples;Min_cycle;Max_cycle;Signal;HPM_P1;HPM_P2
2024/02/23 00:00:49;;;;;;;3.97;1.10;;;9.40;1.00;;;;;;4986578;28;20651;-82
2024/02/23 00:03:16;;;;;;;3.20;0.60;;;9.30;1.00;;;;;;4986036;28;20304;-83
2024/02/23 00:05:43;;;;;;;3.63;0.93;;;9.40;1.00;;;;;;4989455;28;20296;-83
2024/02/23 00:08:10;;;;;;;1.00;0.70;;;9.30;1.00;;;;;;4995469;28;20308;-81
2024/02/23 00:10:38;;;;;;;2.23;0.60;;;9.30;1.00;;;;;;4999165;28;20672;-82
2024/02/23 00:13:05;;;;;;;5.87;0.90;;;9.20;1.00;;;;;;4989909;28;20284;-83
2024/02/23 00:15:32;;;;;;;3.30;0.50;;;9.10;1.00;;;;;;4998862;28;20285;-81
2024/02/23 00:17:58;;;;;;;0.77;0.73;;;9.10;1.00;;;;;;4996201;28;20287;-83
2024/02/23 00:20:25;;;;;;;3.73;0.97;;;9.00;1.00;;;;;;4995211;28;20217;-81
2024/02/23 00:22:53;;;;;;;1.67;0.47;;;9.00;1.00;;;;;;4992415;28;20224;-83
2024/02/23 00:25:20;;;;;;;2.80;1.00;;;9.10;1.00;;;;;;4991530;28;20237;-83
2024/02/23 00:27:48;;;;;;;2.77;0.83;;;9.00;1.00;;;;;;4995083;28;20225;-83
2024/02/23 00:30:15;;;;;;;2.40;0.60;;;9.10;1.00;;;;;;4997526;28;20297;-83
2024/02/23 00:32:42;;;;;;;4.53;0.60;;;9.00;1.00;;;;;;4992459;28;20237;-83
2024/02/23 00:35:09;;;;;;;2.77;0.60;;;9.00;1.00;;;;;;4993708;28;20299;-82
2024/02/23 00:37:36;;;;;;;3.00;0.80;;;9.10;1.00;;;;;;4995372;28;20665;-81
2024/02/23 00:40:04;;;;;;;1.37;0.60;;;9.20;1.00;;;;;;4994855;28;20285;-82
2024/02/23 00:42:31;;;;;;;2.03;0.60;;;9.30;1.00;;;;;;4993711;28;20232;-82
2024/02/23 00:44:59;;;;;;;2.33;0.63;;;9.30;1.00;;;;;;4982397;28;20220;-82
2024/02/23 00:47:26;;;;;;;1.60;0.50;;;9.30;1.00;;;;;;4983503;28;20305;-83
2024/02/23 00:49:52;;;;;;;3.63;0.70;;;9.40;1.00;;;;;;4988930;28;20303;-83
2024/02/23 00:52:19;;;;;;;1.03;0.53;;;9.30;1.00;;;;;;4982796;28;20281;-82
2024/02/23 00:54:46;;;;;;;0.63;0.60;;;9.30;1.00;;;;;;4985857;28;20213;-81
2024/02/23 00:57:13;;;;;;;1.47;0.50;;;9.30;1.00;;;;;;4981470;28;20239;-82
2024/02/23 00:59:40;;;;;;;2.10;0.40;;;9.40;1.00;;;;;;4984091;28;20658;-82
2024/02/23 01:02:09;;;;;;;3.70;0.60;;;9.30;1.00;;;;;;4983574;28;20221;-82
2024/02/23 01:04:36;;;;;;;2.50;0.60;;;9.30;1.00;;;;;;4990168;28;20205;-81
2024/02/23 01:07:03;;;;;;;2.00;0.40;;;9.20;1.00;;;;;;4987416;28;20273;-83
2024/02/23 01:09:29;;;;;;;3.53;0.67;;;9.30;1.00;;;;;;4988594;28;20596;-82
2024/02/23 01:11:56;;;;;;;0.83;0.73;;;9.20;1.00;;;;;;4989614;28;20479;-82
2024/02/23 01:14:23;;;;;;;0.70;0.50;;;9.20;1.00;;;;;;4988983;28;20212;-83
2024/02/23 01:16:50;;;;;;;3.50;0.70;;;9.30;1.00;;;;;;4990945;28;20232;-82
2024/02/23 01:19:18;;;;;;;1.27;0.47;;;9.10;1.00;;;;;;4988263;28;20702;-80
2024/02/23 01:21:45;;;;;;;2.30;0.47;;;9.20;1.00;;;;;;4983641;28;20211;-83
2024/02/23 01:24:12;;;;;;;0.93;0.50;;;9.10;1.00;;;;;;4992736;28;20208;-83
2024/02/23 01:26:39;;;;;;;1.00;0.50;;;9.00;1.00;;;;;;4994968;28;20237;-82
2024/02/23 01:29:06;;;;;;;0.40;0.40;;;8.90;1.00;;;;;;4992947;28;20751;-81
2024/02/23 01:31:32;;;;;;;0.30;0.30;;;8.80;1.00;;;;;;4991431;28;20245;-83
2024/02/23 01:33:59;;;;;;;2.40;0.30;;;8.80;1.00;;;;;;4993620;28;20200;-81
2024/02/23 01:36:27;;;;;;;0.83;0.50;;;8.80;1.00;;;;;;4992818;28;20229;-82
2024/02/23 01:38:54;;;;;;;1.17;0.40;;;8.40;1.00;;;;;;4995612;28;20228;-82
2024/02/23 01:41:21;;;;;;;0.40;0.40;;;8.40;1.00;;;;;;4993732;28;20204;-82
2024/02/23 01:43:49;;;;;;;0.63;0.43;;;8.30;1.00;;;;;;4993060;28;20225;-83
2024/02/23 01:46:19;;;;;;;0.30;0.30;;;8.30;1.00;;;;;;4980353;28;20202;-81
2024/02/23 01:48:46;;;;;;;1.33;0.40;;;8.20;1.00;;;;;;4983316;28;20604;-83
2024/02/23 01:51:13;;;;;;;0.33;0.30;;;8.10;1.00;;;;;;4982333;28;20198;-82
2024/02/23 01:53:41;;;;;;;0.87;0.47;;;8.00;1.00;;;;;;4985564;28;20220;-82
2024/02/23 01:56:09;;;;;;;1.60;0.37;;;8.00;1.00;;;;;;4984421;28;20236;-82
2024/02/23 01:58:37;;;;;;;0.33;0.33;;;8.00;4.80;;;;;;4993566;28;20224;-83
2024/02/23 02:01:04;;;;;;;0.60;0.53;;;7.90;82.00;;;;;;4982114;28;20237;-81
2024/02/23 02:03:31;;;;;;;0.40;0.40;;;7.50;1.00;;;;;;4986303;28;20288;-82
2024/02/23 02:05:59;;;;;;;0.70;0.67;;;7.20;1.00;;;;;;4986416;28;20296;-80
2024/02/23 02:08:27;;;;;;;0.50;0.50;;;7.00;1.00;;;;;;4990344;28;20212;-82
2024/02/23 02:10:55;;;;;;;0.37;0.37;;;6.90;99.90;;;;;;4989043;28;20211;-83
2024/02/23 02:13:22;;;;;;;0.30;0.30;;;6.90;99.90;;;;;;4982438;28;20225;-82
2024/02/23 02:15:48;;;;;;;0.20;0.20;;;7.10;99.90;;;;;;4988458;28;20291;-81
2024/02/23 02:18:15;;;;;;;1.90;0.30;;;7.00;4.20;;;;;;4992311;28;20642;-82
2024/02/23 02:20:52;;;;;;;0.20;0.20;;;6.90;1.00;;;;;;4996370;28;20244;-82
2024/02/23 02:23:18;;;;;;;0.10;0.10;;;6.80;99.90;;;;;;4986304;28;20220;-82
2024/02/23 02:25:45;;;;;;;0.20;0.20;;;6.80;99.90;;;;;;4987825;28;20303;-83
2024/02/23 02:28:13;;;;;;;0.30;0.30;;;6.80;99.90;;;;;;4994166;28;20299;-82
2024/02/23 02:30:40;;;;;;;0.40;0.40;;;6.80;99.90;;;;;;4998418;28;20216;-83
2024/02/23 02:33:07;;;;;;;0.50;0.50;;;6.80;1.00;;;;;;4995889;28;20646;-83
2024/02/23 02:35:34;;;;;;;0.40;0.40;;;6.80;1.00;;;;;;4999380;28;20232;-82
2024/02/23 02:38:01;;;;;;;0.60;0.60;;;6.70;1.00;;;;;;5000719;28;20208;-82
2024/02/23 02:40:28;;;;;;;0.30;0.30;;;6.70;99.90;;;;;;4998138;28;20255;-82
2024/02/23 02:42:54;;;;;;;1.07;0.27;;;6.70;99.90;;;;;;4998979;28;20255;-82
2024/02/23 02:45:23;;;;;;;0.73;0.30;;;6.60;99.90;;;;;;4991660;28;20309;-82
2024/02/23 02:47:50;;;;;;;0.40;0.40;;;6.50;99.90;;;;;;4984515;28;20198;-83
2024/02/23 02:50:17;;;;;;;0.37;0.37;;;6.30;1.00;;;;;;4984101;28;20218;-82
2024/02/23 02:52:44;;;;;;;0.60;0.30;;;6.30;1.00;;;;;;4990522;28;20272;-81
2024/02/23 02:55:11;;;;;;;0.60;0.30;;;6.30;1.00;;;;;;4989428;28;20268;-83
2024/02/23 02:57:37;;;;;;;0.40;0.40;;;6.40;99.90;;;;;;4989165;28;20293;-83
2024/02/23 03:00:05;;;;;;;0.40;0.40;;;6.50;99.90;;;;;;4989268;28;20256;-83
2024/02/23 03:02:34;;;;;;;0.73;0.67;;;6.50;99.90;;;;;;4988991;28;20280;-83
2024/02/23 03:05:00;;;;;;;0.90;0.80;;;6.50;1.00;;;;;;4990476;28;20243;-82
2024/02/23 03:07:27;;;;;;;2.23;0.80;;;6.60;1.00;;;;;;4989398;28;20212;-82
2024/02/23 03:09:54;;;;;;;2.53;0.77;;;6.50;1.00;;;;;;4990180;28;20304;-82
2024/02/23 03:12:23;;;;;;;0.43;0.43;;;6.50;1.00;;;;;;4994685;28;20209;-82
2024/02/23 03:14:50;;;;;;;4.33;0.80;;;6.50;1.00;;;;;;4991925;28;20579;-83
2024/02/23 03:17:17;;;;;;;2.00;0.83;;;6.50;1.00;;;;;;4994552;28;20244;-83
2024/02/23 03:19:45;;;;;;;0.97;0.83;;;6.50;1.00;;;;;;4991877;28;20731;-82
2024/02/23 03:22:12;;;;;;;1.87;0.60;;;6.50;1.00;;;;;;4990561;28;20214;-81
2024/02/23 03:24:39;;;;;;;1.80;0.70;;;6.50;1.00;;;;;;5000384;28;20224;-82
2024/02/23 03:27:05;;;;;;;1.00;0.70;;;6.50;1.00;;;;;;4994901;28;20685;-82
2024/02/23 03:29:32;;;;;;;1.00;0.60;;;6.50;1.00;;;;;;4992963;28;20260;-82
2024/02/23 03:32:01;;;;;;;0.73;0.60;;;6.60;1.00;;;;;;4997646;28;20221;-82
2024/02/23 03:34:28;;;;;;;0.60;0.50;;;6.60;1.00;;;;;;4997756;28;20260;-80
2024/02/23 03:36:56;;;;;;;0.73;0.70;;;6.60;1.00;;;;;;4998651;28;20237;-83
2024/02/23 03:39:23;;;;;;;1.70;1.10;;;6.70;1.00;;;;;;4997995;28;20221;-83
2024/02/23 03:41:50;;;;;;;3.80;1.13;;;6.60;1.00;;;;;;4997942;28;20280;-83
2024/02/23 03:44:16;;;;;;;2.17;1.00;;;6.60;1.00;;;;;;4997209;28;20370;-82
2024/02/23 03:46:43;;;;;;;1.73;0.83;;;6.50;1.00;;;;;;4997391;28;20235;-83
2024/02/23 03:49:11;;;;;;;1.17;0.97;;;6.50;1.00;;;;;;4988257;28;20237;-83
2024/02/23 03:51:39;;;;;;;2.83;1.00;;;6.50;1.00;;;;;;4996772;28;20256;-83
2024/02/23 03:54:07;;;;;;;2.27;0.80;;;6.50;1.00;;;;;;4987676;28;20240;-83
2024/02/23 03:56:40;;;;;;;1.47;1.07;;;6.60;1.00;;;;;;4986121;28;20214;-82
2024/02/23 03:59:09;;;;;;;1.40;1.20;;;6.60;1.00;;;;;;4983414;28;20284;-82
2024/02/23 04:01:36;;;;;;;2.43;1.30;;;6.80;99.90;;;;;;4985112;28;20558;-82
2024/02/23 04:04:03;;;;;;;1.10;1.10;;;6.60;99.90;;;;;;4981567;28;20247;-83
2024/02/23 04:06:29;;;;;;;1.60;1.17;;;6.60;99.90;;;;;;4989424;28;20312;-83
2024/02/23 04:08:56;;;;;;;1.90;1.07;;;6.50;99.90;;;;;;4994568;28;20304;-80
2024/02/23 04:11:25;;;;;;;4.57;1.10;;;6.50;99.90;;;;;;4991189;28;20578;-82
2024/02/23 04:13:51;;;;;;;3.83;1.20;;;6.50;99.90;;;;;;4993835;28;20358;-82
2024/02/23 04:16:18;;;;;;;2.87;1.00;;;6.40;99.90;;;;;;4991449;28;20292;-81
2024/02/23 04:18:45;;;;;;;2.30;1.10;;;6.40;99.90;;;;;;4988185;28;20260;-83
2024/02/23 04:21:12;;;;;;;2.30;1.17;;;6.40;99.90;;;;;;4989945;28;20284;-81
2024/02/23 04:23:39;;;;;;;1.40;0.97;;;6.40;99.90;;;;;;4990753;28;20631;-82
2024/02/23 04:26:05;;;;;;;0.90;0.90;;;6.40;99.90;;;;;;4993199;28;20207;-83
2024/02/23 04:28:34;;;;;;;1.60;1.10;;;6.40;99.90;;;;;;4995246;28;20249;-82
2024/02/23 04:31:01;;;;;;;4.33;1.23;;;6.30;99.90;;;;;;4986146;28;20746;-82
2024/02/23 04:33:28;;;;;;;1.57;1.03;;;6.30;99.90;;;;;;4995773;28;20213;-83
2024/02/23 04:35:55;;;;;;;2.00;0.93;;;6.30;99.90;;;;;;4998408;28;20212;-82
2024/02/23 04:38:21;;;;;;;1.40;1.20;;;6.30;99.90;;;;;;4996504;28;20201;-82
2024/02/23 04:40:48;;;;;;;2.20;0.93;;;6.40;99.90;;;;;;4998053;28;20284;-82
2024/02/23 04:43:15;;;;;;;2.10;1.10;;;6.50;99.90;;;;;;4997261;28;20225;-82
2024/02/23 04:45:43;;;;;;;2.60;1.37;;;6.50;99.90;;;;;;4987612;28;20205;-82
2024/02/23 04:48:10;;;;;;;2.60;1.13;;;6.80;99.90;;;;;;4978679;28;20201;-81
2024/02/23 04:50:37;;;;;;;2.63;1.10;;;6.50;99.90;;;;;;4979801;28;20237;-83
2024/02/23 04:53:04;;;;;;;2.70;1.10;;;6.50;99.90;;;;;;4986972;28;20201;-81
2024/02/23 04:55:31;;;;;;;1.83;1.00;;;6.50;99.90;;;;;;4981581;28;20296;-82
2024/02/23 04:57:58;;;;;;;3.10;2.23;;;6.50;99.90;;;;;;4993975;28;20269;-83
2024/02/23 05:00:28;;;;;;;2.97;0.93;;;6.50;99.90;;;;;;4983186;28;20635;-81
2024/02/23 05:02:56;;;;;;;1.20;1.10;;;6.60;99.90;;;;;;4986480;28;20193;-82
2024/02/23 05:05:23;;;;;;;1.83;0.90;;;6.60;99.90;;;;;;4990543;28;20212;-82
2024/02/23 05:07:50;;;;;;;0.80;0.80;;;6.60;99.90;;;;;;4989343;28;20209;-83
2024/02/23 05:10:17;;;;;;;3.30;1.10;;;6.60;99.90;;;;;;4986297;28;20229;-83
2024/02/23 05:12:44;;;;;;;1.07;0.70;;;6.50;99.90;;;;;;4988882;28;20220;-83
2024/02/23 05:15:12;;;;;;;5.13;1.30;;;6.40;99.90;;;;;;4988322;28;20193;-82
2024/02/23 05:17:38;;;;;;;2.87;0.80;;;6.40;99.90;;;;;;4992606;28;20657;-82
2024/02/23 05:20:10;;;;;;;1.00;0.90;;;6.40;99.90;;;;;;4990215;28;20224;-83
2024/02/23 05:22:37;;;;;;;3.63;1.00;;;6.50;99.90;;;;;;4994612;28;20236;-82
2024/02/23 05:25:04;;;;;;;2.87;1.27;;;6.50;99.90;;;;;;4986709;28;20229;-82
2024/02/23 05:27:31;;;;;;;2.07;1.20;;;6.50;99.90;;;;;;4986308;28;20555;-82
2024/02/23 05:29:58;;;;;;;1.90;0.90;;;6.50;99.90;;;;;;4991214;28;20224;-82
2024/02/23 05:32:25;;;;;;;3.53;0.90;;;6.50;99.90;;;;;;4992382;28;20236;-81
2024/02/23 05:34:53;;;;;;;1.70;0.93;;;6.40;99.90;;;;;;4995424;28;20260;-82
2024/02/23 05:37:22;;;;;;;4.20;1.10;;;6.50;77.50;;;;;;4995884;28;20209;-82
2024/02/23 05:39:49;;;;;;;3.90;1.30;;;6.40;90.00;;;;;;4988811;28;20275;-82
2024/02/23 05:42:16;;;;;;;1.43;0.97;;;6.30;80.70;;;;;;4981840;28;20256;-83
2024/02/23 05:44:45;;;;;;;2.00;0.90;;;6.30;74.10;;;;;;4994950;28;20224;-83
2024/02/23 05:47:13;;;;;;;3.03;1.20;;;6.30;81.70;;;;;;4996716;28;20205;-83
2024/02/23 05:49:40;;;;;;;2.53;1.03;;;6.30;95.30;;;;;;4989177;28;20225;-82
2024/02/23 05:52:07;;;;;;;3.30;1.00;;;6.20;92.80;;;;;;4990096;28;20201;-83
2024/02/23 05:54:35;;;;;;;3.13;1.00;;;6.40;41.60;;;;;;4981888;28;20210;-83
2024/02/23 05:57:02;;;;;;;1.83;1.03;;;6.40;51.40;;;;;;4978747;28;20210;-83
2024/02/23 05:59:29;;;;;;;1.50;0.87;;;6.40;55.10;;;;;;4986781;28;20637;-82
2024/02/23 06:01:57;;;;;;;3.30;0.87;;;6.40;40.30;;;;;;4982821;28;20292;-80
2024/02/23 06:04:24;;;;;;;2.37;1.00;;;6.50;42.70;;;;;;4994670;28;20653;-82
2024/02/23 06:06:51;;;;;;;3.27;1.00;;;6.50;99.90;;;;;;4987291;28;20198;-82
2024/02/23 06:09:18;;;;;;;3.07;0.87;;;6.50;81.40;;;;;;4984223;28;20633;-83
2024/02/23 06:11:47;;;;;;;1.47;0.80;;;6.50;79.20;;;;;;4991363;28;20244;-83
2024/02/23 06:14:14;;;;;;;1.80;0.93;;;6.60;3.80;;;;;;4984936;28;20244;-83
2024/02/23 06:16:41;;;;;;;3.90;1.00;;;6.60;1.00;;;;;;4991912;28;20205;-81
2024/02/23 06:19:08;;;;;;;6.03;1.13;;;6.60;1.00;;;;;;4990976;28;20706;-81
2024/02/23 06:21:35;;;;;;;3.47;1.47;;;6.60;7.20;;;;;;4991089;28;20232;-81
2024/02/23 06:24:02;;;;;;;2.00;0.93;;;6.60;1.00;;;;;;4989019;28;20221;-80
2024/02/23 06:26:29;;;;;;;3.47;1.23;;;7.10;1.00;;;;;;4985422;28;20209;-80
2024/02/23 06:28:57;;;;;;;3.30;1.50;;;6.70;1.00;;;;;;4989098;28;20220;-82
2024/02/23 06:31:24;;;;;;;2.37;1.07;;;6.70;1.00;;;;;;4987419;28;20205;-81
2024/02/23 06:33:51;;;;;;;2.20;0.90;;;6.60;1.00;;;;;;4983176;28;20200;-81
2024/02/23 06:36:19;;;;;;;0.90;0.77;;;6.60;1.60;;;;;;4993131;28;20213;-81
2024/02/23 06:38:46;;;;;;;2.97;0.90;;;6.60;1.00;;;;;;4987277;28;20225;-81
2024/02/23 06:41:13;;;;;;;5.33;1.07;;;6.60;1.00;;;;;;4993098;28;20240;-82
2024/02/23 06:43:39;;;;;;;3.40;1.00;;;6.70;1.00;;;;;;4985570;28;20205;-82
2024/02/23 06:46:09;;;;;;;5.07;0.70;;;6.60;1.00;;;;;;4980596;28;20208;-80
2024/02/23 06:48:37;;;;;;;2.87;0.87;;;6.60;1.00;;;;;;4988109;28;20279;-81
2024/02/23 06:51:04;;;;;;;1.47;0.70;;;6.60;1.00;;;;;;5007617;28;20201;-80
2024/02/23 06:53:32;;;;;;;2.30;0.60;;;6.50;1.00;;;;;;4994503;28;20668;-81
2024/02/23 06:56:00;;;;;;;1.00;0.80;;;6.60;1.00;;;;;;4991305;28;20205;-82
2024/02/23 06:58:27;;;;;;;6.23;1.80;;;6.60;1.00;;;;;;4988931;28;20205;-82
2024/02/23 07:00:54;;;;;;;5.87;0.93;;;6.60;1.00;;;;;;4982775;28;20250;-82
2024/02/23 07:03:23;;;;;;;3.97;0.93;;;6.60;1.00;;;;;;4991926;28;20208;-82
2024/02/23 07:05:50;;;;;;;2.87;0.83;;;6.60;1.00;;;;;;4985253;28;20225;-82
2024/02/23 07:08:17;;;;;;;2.47;0.80;;;6.60;1.00;;;;;;4986209;28;20292;-82
2024/02/23 07:10:45;;;;;;;1.10;1.00;;;6.70;1.00;;;;;;4985684;28;20209;-81
2024/02/23 07:13:11;;;;;;;1.93;0.70;;;6.70;1.00;;;;;;4987587;28;20213;-80
2024/02/23 07:15:38;;;;;;;2.13;0.70;;;6.70;1.00;;;;;;4989540;28;20211;-81
2024/02/23 07:18:08;;;;;;;3.70;0.80;;;6.70;1.00;;;;;;4982418;28;20197;-82
2024/02/23 07:20:36;;;;;;;3.10;0.97;;;6.80;1.00;;;;;;4994846;28;20255;-82
2024/02/23 07:23:03;;;;;;;1.93;0.60;;;6.80;1.00;;;;;;4995672;28;20216;-82
2024/02/23 07:25:30;;;;;;;3.63;0.90;;;6.80;1.00;;;;;;4994204;28;20268;-81
2024/02/23 07:27:58;;;;;;;1.43;0.60;;;6.80;1.00;;;;;;5001559;28;20559;-82
2024/02/23 07:30:25;;;;;;;2.90;0.70;;;6.80;1.00;;;;;;4995625;28;20225;-82
2024/02/23 07:32:52;;;;;;;3.60;0.70;;;6.80;1.00;;;;;;5002934;28;20201;-82
2024/02/23 07:35:19;;;;;;;2.63;0.73;;;6.80;1.00;;;;;;5005036;28;20227;-82
2024/02/23 07:37:47;;;;;;;3.67;0.97;;;6.80;1.00;;;;;;4999758;28;20261;-81
2024/02/23 07:40:14;;;;;;;3.70;0.70;;;6.80;1.00;;;;;;4994281;28;20225;-82
2024/02/23 07:42:41;;;;;;;2.30;0.73;;;6.80;1.00;;;;;;4985284;28;20269;-82
2024/02/23 07:45:09;;;;;;;5.30;0.80;;;6.80;1.00;;;;;;4990617;28;20229;-82
2024/02/23 07:47:36;;;;;;;2.47;0.57;;;6.80;1.00;;;;;;4988673;28;20231;-83
2024/02/23 07:50:03;;;;;;;1.47;0.60;;;6.80;1.00;;;;;;4998748;28;20303;-82
2024/02/23 07:52:29;;;;;;;4.37;0.90;;;6.80;1.00;;;;;;5008056;28;20220;-83
2024/02/23 07:54:59;;;;;;;3.50;0.50;;;6.80;1.00;;;;;;4991564;28;20202;-83
2024/02/23 07:57:26;;;;;;;3.27;0.50;;;6.90;1.00;;;;;;5006609;28;20200;-83
2024/02/23 07:59:53;;;;;;;3.33;0.90;;;6.80;1.00;;;;;;4999025;28;20308;-82
2024/02/23 08:02:20;;;;;;;1.60;0.60;;;6.90;1.00;;;;;;5006176;28;20200;-83
2024/02/23 08:04:48;;;;;;;1.87;0.57;;;6.90;1.00;;;;;;5002954;28;20221;-82
2024/02/23 08:07:15;;;;;;;4.37;0.60;;;7.00;1.00;;;;;;4983897;28;20677;-82
2024/02/23 08:09:42;;;;;;;4.20;0.53;;;7.00;1.00;;;;;;4997932;28;20315;-82
2024/02/23 08:12:11;;;;;;;1.87;0.37;;;7.00;1.00;;;;;;4999203;28;20224;-82
2024/02/23 08:14:38;;;;;;;2.20;0.77;;;7.10;1.00;;;;;;4994536;28;20225;-82
2024/02/23 08:17:05;;;;;;;3.40;0.67;;;7.10;1.00;;;;;;4986502;28;20256;-82
2024/02/23 08:19:32;;;;;;;0.87;0.40;;;7.30;1.00;;;;;;4993390;28;20664;-83
2024/02/23 08:21:58;;;;;;;3.90;0.70;;;7.20;1.00;;;;;;4997262;28;20201;-81
2024/02/23 08:24:26;;;;;;;2.40;0.50;;;7.30;1.00;;;;;;4991862;28;20324;-82
2024/02/23 08:26:53;;;;;;;2.33;0.63;;;7.40;1.00;;;;;;4999481;28;20292;-81
2024/02/23 08:29:22;;;;;;;4.27;0.70;;;7.40;1.00;;;;;;4998308;28;20217;-81
2024/02/23 08:31:49;;;;;;;2.60;0.60;;;7.70;1.00;;;;;;4981535;28;20206;-82
2024/02/23 08:34:17;;;;;;;0.80;0.40;;;8.70;1.00;;;;;;4991707;28;20228;-82
2024/02/23 08:36:44;;;;;;;3.47;0.60;;;8.60;1.00;;;;;;4996155;28;20202;-82
2024/02/23 08:39:11;;;;;;;1.80;0.63;;;10.00;1.00;;;;;;5002565;28;20220;-83
2024/02/23 08:41:38;;;;;;;0.67;0.30;;;10.40;1.00;;;;;;5001015;28;20229;-82
2024/02/23 08:44:05;;;;;;;0.70;0.23;;;9.60;1.00;;;;;;4998254;28;20580;-82
2024/02/23 08:46:34;;;;;;;2.20;0.70;;;9.90;1.00;;;;;;4990092;28;20661;-82
2024/02/23 08:49:01;;;;;;;4.63;0.60;;;9.90;1.00;;;;;;4995753;28;20217;-82
2024/02/23 08:51:27;;;;;;;6.60;0.83;;;10.30;1.00;;;;;;5008957;28;20207;-81
2024/02/23 08:53:55;;;;;;;2.73;0.43;;;10.50;1.00;;;;;;4983758;28;20213;-82
2024/02/23 08:56:22;;;;;;;1.53;0.40;;;10.70;1.00;;;;;;4997034;28;20232;-82
2024/02/23 08:58:49;;;;;;;3.30;0.50;;;10.40;1.00;;;;;;4997404;28;20244;-83
2024/02/23 09:01:16;;;;;;;2.63;0.50;;;9.60;1.00;;;;;;4999710;28;20197;-82
2024/02/23 09:03:44;;;;;;;4.10;0.83;;;9.50;1.00;;;;;;4992071;28;20205;-82
2024/02/23 09:06:11;;;;;;;1.10;0.40;;;9.10;1.00;;;;;;4994231;28;20228;-82
2024/02/23 09:08:38;;;;;;;1.83;0.80;;;9.10;1.00;;;;;;5006457;28;20223;-82
2024/02/23 09:11:05;;;;;;;1.10;0.50;;;9.10;1.00;;;;;;5000854;28;20734;-82
2024/02/23 09:13:32;;;;;;;3.47;0.80;;;9.20;1.00;;;;;;4993210;28;20201;-82
2024/02/23 09:15:59;;;;;;;5.40;0.70;;;9.30;1.00;;;;;;4994678;28;20232;-82
2024/02/23 09:18:25;;;;;;;1.90;0.60;;;9.40;1.00;;;;;;4989547;28;20225;-82
2024/02/23 09:20:54;;;;;;;4.03;0.57;;;9.30;1.00;;;;;;4986549;28;20275;-83
2024/02/23 09:23:21;;;;;;;0.77;0.30;;;9.50;1.00;;;;;;4991719;28;20581;-81
2024/02/23 09:25:48;;;;;;;1.77;0.73;;;9.20;1.00;;;;;;4989084;28;20248;-81
2024/02/23 09:28:14;;;;;;;1.17;0.23;;;8.90;1.00;;;;;;4997329;28;20207;-81
2024/02/23 09:30:41;;;;;;;2.27;0.57;;;9.10;1.00;;;;;;4992495;28;20216;-82
2024/02/23 09:33:09;;;;;;;3.13;0.60;;;9.20;1.00;;;;;;4994117;28;20205;-81
2024/02/23 09:35:36;;;;;;;4.00;0.80;;;9.30;1.00;;;;;;4994803;28;20203;-82
2024/02/23 09:38:04;;;;;;;1.63;0.43;;;9.20;1.00;;;;;;4995299;28;20205;-82
2024/02/23 09:40:31;;;;;;;1.03;0.47;;;9.20;1.00;;;;;;4987523;28;20229;-82
2024/02/23 09:42:59;;;;;;;1.17;0.40;;;9.20;1.00;;;;;;4986578;28;20202;-82
2024/02/23 09:45:27;;;;;;;3.10;0.60;;;9.00;1.00;;;;;;4994423;28;20256;-82
2024/02/23 09:47:55;;;;;;;1.50;0.40;;;9.00;1.00;;;;;;4996868;28;20260;-82
2024/02/23 09:50:24;;;;;;;1.47;0.73;;;9.00;1.00;;;;;;5007055;28;20294;-82
2024/02/23 09:52:51;;;;;;;2.30;0.40;;;9.10;1.00;;;;;;4982192;28;20197;-81
2024/02/23 09:55:22;;;;;;;2.20;0.50;;;9.70;1.00;;;;;;4998536;28;20232;-82
2024/02/23 09:57:54;;;;;;;1.70;0.43;;;9.90;1.00;;;;;;4993203;28;20352;-81
2024/02/23 10:00:21;;;;;;;2.00;0.53;;;9.90;1.00;;;;;;4998868;28;20593;-81
2024/02/23 10:02:49;;;;;;;2.60;0.60;;;10.10;1.00;;;;;;5003206;28;20250;-80
2024/02/23 10:05:17;;;;;;;1.53;0.50;;;10.10;1.00;;;;;;4986829;28;20242;-82
2024/02/23 10:07:45;;;;;;;0.73;0.30;;;9.90;1.00;;;;;;5005269;28;20626;-82
2024/02/23 10:10:12;;;;;;;1.23;0.63;;;10.00;1.00;;;;;;4993405;28;20221;-82
2024/02/23 10:12:41;;;;;;;1.40;0.40;;;10.00;1.00;;;;;;4998282;28;20296;-81
2024/02/23 10:15:09;;;;;;;2.77;0.60;;;10.10;1.00;;;;;;4996405;28;20674;-82
2024/02/23 10:17:35;;;;;;;2.20;0.50;;;9.90;1.00;;;;;;4984610;28;20205;-83
2024/02/23 10:20:04;;;;;;;1.67;0.40;;;10.20;1.00;;;;;;4996454;28;20271;-82
2024/02/23 10:22:32;;;;;;;1.70;0.57;;;10.40;99.90;;;;;;4993158;28;20237;-83
2024/02/23 10:24:58;;;;;;;3.53;0.63;;;10.40;99.90;;;;;;4995575;28;20324;-80
2024/02/23 10:27:26;;;;;;;2.30;0.50;;;10.00;99.90;;;;;;4992855;28;20197;-82
2024/02/23 10:29:54;;;;;;;1.70;0.30;;;10.50;1.00;;;;;;4994916;28;20237;-81
2024/02/23 10:32:22;;;;;;;1.03;0.40;;;10.30;99.90;;;;;;4998571;28;20208;-82
2024/02/23 10:34:50;;;;;;;4.37;0.63;;;10.00;99.90;;;;;;4997645;28;20246;-83
2024/02/23 10:37:17;;;;;;;2.67;0.60;;;9.80;99.90;;;;;;4993398;28;20273;-80
2024/02/23 10:39:44;;;;;;;4.20;0.77;;;9.50;99.90;;;;;;4989401;28;20252;-83
2024/02/23 10:42:12;;;;;;;2.13;0.63;;;9.40;99.90;;;;;;4998131;28;20232;-82
2024/02/23 10:44:40;;;;;;;4.17;0.60;;;9.70;99.90;;;;;;4989767;28;20224;-82
2024/02/23 10:47:08;;;;;;;1.17;0.53;;;9.30;99.90;;;;;;4999376;28;20386;-82
2024/02/23 10:49:36;;;;;;;3.07;0.50;;;9.30;99.90;;;;;;4984900;28;20257;-83
2024/02/23 10:52:03;;;;;;;2.40;0.67;;;9.30;99.90;;;;;;4996847;28;20550;-83
2024/02/23 10:54:32;;;;;;;2.63;0.60;;;9.40;99.90;;;;;;4990694;28;20684;-82
2024/02/23 10:56:59;;;;;;;2.43;0.80;;;9.40;99.90;;;;;;5008986;28;20197;-82
2024/02/23 10:59:27;;;;;;;4.67;1.13;;;9.50;99.90;;;;;;5008147;28;20232;-80
2024/02/23 11:01:57;;;;;;;2.63;0.70;;;9.60;99.90;;;;;;4991692;28;20625;-82
2024/02/23 11:04:27;;;;;;;3.90;0.70;;;9.60;99.90;;;;;;4986977;28;20213;-82
2024/02/23 11:06:58;;;;;;;1.00;0.90;;;9.70;99.90;;;;;;5001043;28;20252;-82
2024/02/23 11:09:26;;;;;;;3.07;0.77;;;9.70;99.90;;;;;;5005059;28;20632;-82
2024/02/23 11:11:56;;;;;;;4.13;0.47;;;9.90;99.90;;;;;;5001864;28;20205;-82
2024/02/23 11:14:33;;;;;;;2.63;0.70;;;9.90;99.90;;;;;;4995186;28;20217;-81
2024/02/23 11:17:00;;;;;;;2.57;0.70;;;10.30;99.90;;;;;;4992601;28;20372;-81
2024/02/23 11:19:35;;;;;;;1.27;0.43;;;10.70;99.90;;;;;;4998519;28;20221;-83
2024/02/23 11:22:02;;;;;;;3.03;0.70;;;10.30;99.90;;;;;;5008872;28;20292;-83
2024/02/23 11:24:30;;;;;;;1.60;0.70;;;10.60;99.90;;;;;;5000552;28;20244;-83
2024/02/23 11:27:07;;;;;;;2.73;0.70;;;11.00;99.90;;;;;;4992587;28;20229;-82
2024/02/23 11:29:36;;;;;;;1.93;0.50;;;11.10;99.90;;;;;;4994298;28;20267;-83
2024/02/23 11:32:04;;;;;;;1.30;0.50;;;11.10;99.90;;;;;;5001539;28;20215;-81
2024/02/23 11:34:31;;;;;;;2.63;0.90;;;11.10;99.90;;;;;;5001589;28;20260;-82
2024/02/23 11:37:10;;;;;;;2.63;0.80;;;11.60;99.90;;;;;;5002332;28;20209;-82
2024/02/23 11:39:39;;;;;;;3.33;0.77;;;11.50;99.90;;;;;;4992636;28;20224;-81
2024/02/23 11:42:06;;;;;;;3.20;0.70;;;11.30;99.90;;;;;;5001543;28;20204;-82
2024/02/23 11:44:33;;;;;;;1.93;0.73;;;11.10;99.90;;;;;;4999616;28;20209;-82
2024/02/23 11:47:00;;;;;;;1.77;0.77;;;10.80;99.90;;;;;;4997773;28;20284;-82
2024/02/23 11:49:30;;;;;;;2.57;0.83;;;10.70;99.90;;;;;;5000982;28;20217;-82
2024/02/23 11:51:58;;;;;;;1.17;0.50;;;10.60;99.90;;;;;;5008407;28;20308;-80
2024/02/23 11:54:25;;;;;;;1.97;0.60;;;10.40;99.90;;;;;;4997211;28;20505;-82
2024/02/23 11:56:52;;;;;;;1.80;0.50;;;10.30;99.90;;;;;;4988852;28;20205;-81
2024/02/23 11:59:21;;;;;;;1.80;0.73;;;10.60;99.90;;;;;;5000032;28;20236;-82
2024/02/23 12:01:48;;;;;;;3.63;0.60;;;10.60;99.90;;;;;;5008740;28;20291;-82
2024/02/23 12:04:15;;;;;;;1.53;0.50;;;10.50;99.90;;;;;;4999979;28;20212;-82
2024/02/23 12:06:43;;;;;;;3.73;0.70;;;10.50;99.90;;;;;;4991943;28;20293;-82
2024/02/23 12:09:12;;;;;;;2.50;0.57;;;10.60;99.90;;;;;;4999801;28;20225;-80
2024/02/23 12:11:39;;;;;;;3.10;0.63;;;10.20;99.90;;;;;;4998806;28;20217;-81
2024/02/23 12:14:07;;;;;;;2.07;0.33;;;10.00;99.90;;;;;;5000005;28;20251;-80
2024/02/23 12:16:35;;;;;;;1.87;0.80;;;10.30;99.90;;;;;;5001267;28;20197;-82
2024/02/23 12:19:02;;;;;;;4.13;0.60;;;10.00;99.90;;;;;;5004208;28;20268;-82
2024/02/23 12:21:29;;;;;;;4.60;0.97;;;10.00;99.90;;;;;;4999692;28;20683;-82
2024/02/23 12:23:56;;;;;;;2.03;0.80;;;10.10;99.90;;;;;;5000406;28;20267;-83
2024/02/23 12:26:25;;;;;;;4.20;1.23;;;10.10;99.90;;;;;;4988573;28;20589;-82
2024/02/23 12:28:53;;;;;;;2.27;0.77;;;10.10;99.90;;;;;;4994004;28;20229;-82
2024/02/23 12:31:26;;;;;;;2.73;0.80;;;10.10;99.90;;;;;;4997047;28;20207;-82
2024/02/23 12:33:53;;;;;;;1.93;0.53;;;10.30;99.90;;;;;;4993037;28;20432;-81
2024/02/23 12:36:20;;;;;;;5.13;0.50;;;10.40;99.90;;;;;;4990256;28;20558;-82
2024/02/23 12:38:47;;;;;;;1.37;0.97;;;10.20;99.90;;;;;;4991888;28;20669;-81
2024/02/23 12:41:14;;;;;;;2.87;0.57;;;10.00;99.90;;;;;;4994802;28;20269;-81
2024/02/23 12:43:42;;;;;;;1.67;0.50;;;10.10;99.90;;;;;;4994256;28;20215;-79
2024/02/23 12:46:09;;;;;;;2.10;0.60;;;10.00;99.90;;;;;;5006080;28;20225;-83
2024/02/23 12:48:36;;;;;;;2.93;0.70;;;10.20;99.90;;;;;;5001996;28;20232;-82
2024/02/23 12:51:03;;;;;;;2.47;0.57;;;10.20;99.90;;;;;;4992017;28;20216;-82
2024/02/23 12:53:35;;;;;;;1.93;0.50;;;10.10;99.90;;;;;;4994861;28;20612;-81
2024/02/23 12:56:03;;;;;;;1.33;0.40;;;10.20;99.90;;;;;;4989616;28;20202;-82
2024/02/23 12:58:30;;;;;;;2.37;0.40;;;11.20;99.90;;;;;;4998471;28;20201;-81
2024/02/23 13:00:59;;;;;;;2.10;0.33;;;10.70;99.90;;;;;;4990734;28;20208;-81